createdAt,value
2022-12-09T00:00:06.719Z,3.22
2022-12-09T00:02:33.869Z,3.12
2022-12-09T00:05:00.641Z,2.82
2022-12-09T00:07:27.635Z,2.78
2022-12-09T00:09:54.036Z,3.01
2022-12-09T00:12:23.774Z,2.93
2022-12-09T00:14:50.353Z,2.88
2022-12-09T00:17:16.949Z,3.01
2022-12-09T00:19:43.423Z,3.11
2022-12-09T00:22:10.095Z,3.13
2022-12-09T00:24:36.511Z,3.21
2022-12-09T00:27:03.304Z,3.21
2022-12-09T00:29:29.781Z,3.15
2022-12-09T00:31:57.045Z,3.03
2022-12-09T00:34:26.528Z,3.08
2022-12-09T00:36:52.945Z,3.07
2022-12-09T00:39:19.398Z,3.08
2022-12-09T00:41:46.130Z,3.03
2022-12-09T00:44:12.705Z,3.05
2022-12-09T00:46:39.257Z,3.05
2022-12-09T00:49:05.747Z,2.95
2022-12-09T00:51:32.211Z,3.13
2022-12-09T00:53:58.952Z,3.00
2022-12-09T00:56:28.349Z,2.88
2022-12-09T00:58:55.911Z,2.73
2022-12-09T01:01:23.181Z,2.72
2022-12-09T01:03:49.862Z,2.74
2022-12-09T01:06:23.357Z,2.70
2022-12-09T01:08:50.275Z,2.88
2022-12-09T01:11:20.534Z,2.86
2022-12-09T01:13:48.910Z,2.93
2022-12-09T01:16:27.538Z,2.99
2022-12-09T01:18:55.303Z,2.98
2022-12-09T01:21:21.793Z,3.07
2022-12-09T01:23:48.214Z,3.05
2022-12-09T01:26:14.896Z,3.26
2022-12-09T01:28:41.962Z,3.33
2022-12-09T01:31:14.000Z,3.36
2022-12-09T01:33:42.102Z,3.39
2022-12-09T01:36:22.166Z,3.45
2022-12-09T01:38:48.748Z,3.38
2022-12-09T01:41:17.201Z,3.43
2022-12-09T01:43:43.968Z,3.44
2022-12-09T01:46:10.776Z,3.33
2022-12-09T01:48:42.269Z,3.39
2022-12-09T01:51:15.674Z,3.47
2022-12-09T01:53:46.483Z,3.31
2022-12-09T01:56:19.372Z,3.59
2022-12-09T01:58:47.010Z,3.70
2022-12-09T02:01:14.447Z,3.70
2022-12-09T02:03:41.197Z,3.50
2022-12-09T02:06:08.118Z,3.70
2022-12-09T02:08:34.720Z,3.77
2022-12-09T02:11:19.667Z,3.80
2022-12-09T02:14:04.563Z,3.79
2022-12-09T02:16:46.936Z,3.65
2022-12-09T02:19:34.998Z,3.89
2022-12-09T02:22:01.760Z,3.88
2022-12-09T02:24:55.033Z,3.92
2022-12-09T02:27:37.680Z,3.76
2022-12-09T02:30:12.527Z,3.80
2022-12-09T02:33:01.306Z,3.91
2022-12-09T02:35:32.554Z,3.83
2022-12-09T02:38:14.468Z,3.89
2022-12-09T02:40:50.455Z,3.60
2022-12-09T02:43:22.323Z,3.82
2022-12-09T02:45:50.571Z,3.96
2022-12-09T02:48:23.091Z,3.98
2022-12-09T02:50:52.815Z,3.95
2022-12-09T02:53:19.819Z,3.88
2022-12-09T02:55:49.070Z,3.67
2022-12-09T02:58:15.762Z,3.83
2022-12-09T03:00:42.957Z,3.78
2022-12-09T03:03:15.192Z,3.68
2022-12-09T03:05:47.383Z,3.81
2022-12-09T03:08:29.116Z,3.81
2022-12-09T03:11:10.838Z,3.71
2022-12-09T03:13:52.418Z,3.55
2022-12-09T03:16:36.857Z,3.61
2022-12-09T03:19:37.141Z,3.75
2022-12-09T03:22:08.807Z,3.81
2022-12-09T03:25:01.705Z,3.61
2022-12-09T03:27:43.556Z,3.29
2022-12-09T03:30:11.362Z,3.44
2022-12-09T03:32:42.910Z,3.61
2022-12-09T03:35:15.509Z,3.48
2022-12-09T03:37:44.833Z,3.44
2022-12-09T03:40:16.102Z,3.70
2022-12-09T03:42:51.369Z,3.83
2022-12-09T03:45:19.616Z,3.88
2022-12-09T03:47:46.793Z,3.66
2022-12-09T03:50:14.072Z,3.68
2022-12-09T03:52:53.413Z,3.38
2022-12-09T03:55:29.499Z,3.62
2022-12-09T03:58:00.133Z,3.69
2022-12-09T04:00:27.584Z,3.99
2022-12-09T04:02:54.462Z,3.93
2022-12-09T04:05:21.084Z,3.95
2022-12-09T04:07:47.773Z,3.98
2022-12-09T04:10:14.373Z,4.14
2022-12-09T04:12:40.999Z,3.95
2022-12-09T04:15:08.333Z,4.16
2022-12-09T04:17:35.189Z,3.72
2022-12-09T04:20:04.843Z,3.49
2022-12-09T04:22:31.868Z,3.76
2022-12-09T04:24:58.334Z,3.58
2022-12-09T04:27:24.837Z,3.83
2022-12-09T04:29:51.346Z,4.15
2022-12-09T04:32:17.970Z,4.27
2022-12-09T04:34:45.417Z,4.29
2022-12-09T04:37:13.038Z,4.14
2022-12-09T04:39:41.961Z,4.22
2022-12-09T04:42:09.322Z,4.30
2022-12-09T04:44:35.970Z,4.17
2022-12-09T04:47:02.814Z,4.14
2022-12-09T04:49:29.601Z,4.27
2022-12-09T04:54:33.945Z,3.71
2022-12-09T04:57:00.457Z,3.87
2022-12-09T04:59:28.915Z,3.86
2022-12-09T05:04:23.292Z,3.86
2022-12-09T05:06:50.114Z,3.89
2022-12-09T05:09:16.915Z,3.79
2022-12-09T05:11:43.776Z,3.60
2022-12-09T05:14:10.709Z,3.71
2022-12-09T05:16:37.418Z,3.92
2022-12-09T05:19:04.152Z,3.99
2022-12-09T05:21:30.943Z,4.02
2022-12-09T05:23:57.611Z,3.92
2022-12-09T05:26:24.355Z,3.89
2022-12-09T05:28:52.403Z,3.95
2022-12-09T05:31:22.066Z,3.92
2022-12-09T05:33:50.426Z,3.94
2022-12-09T05:36:20.155Z,3.58
2022-12-09T05:38:47.040Z,3.59
2022-12-09T05:41:14.242Z,3.77
2022-12-09T05:43:41.076Z,3.64
2022-12-09T05:46:08.605Z,3.80
2022-12-09T05:48:36.252Z,3.84
2022-12-09T05:51:18.686Z,3.94
2022-12-09T05:53:45.588Z,3.90
2022-12-09T05:56:16.366Z,3.83
2022-12-09T05:58:43.798Z,3.88
2022-12-09T06:01:10.754Z,3.79
2022-12-09T06:03:38.511Z,3.83
2022-12-09T06:06:11.399Z,3.84
2022-12-09T06:08:39.463Z,3.90
2022-12-09T06:11:11.874Z,3.54
2022-12-09T06:13:38.372Z,3.60
2022-12-09T06:16:06.166Z,3.75
2022-12-09T06:18:33.229Z,3.80
2022-12-09T06:21:04.378Z,3.81
2022-12-09T06:23:30.982Z,3.59
2022-12-09T06:25:57.883Z,3.44
2022-12-09T06:28:24.504Z,3.47
2022-12-09T06:30:51.263Z,3.40
2022-12-09T06:33:52.384Z,3.69
2022-12-09T06:36:05.430Z,3.70
2022-12-09T06:38:32.290Z,3.76
2022-12-09T06:40:58.919Z,3.72
2022-12-09T06:43:28.354Z,3.68
2022-12-09T06:45:54.831Z,3.89
2022-12-09T06:48:24.384Z,3.44
2022-12-09T06:50:52.091Z,3.53
2022-12-09T06:53:18.866Z,3.20
2022-12-09T06:55:45.611Z,3.79
2022-12-09T06:58:12.265Z,3.83
2022-12-09T07:00:40.539Z,3.86
2022-12-09T07:03:07.616Z,3.90
2022-12-09T07:05:34.443Z,3.55
2022-12-09T07:08:01.895Z,3.40
2022-12-09T07:10:29.952Z,3.47
2022-12-09T07:12:56.829Z,3.80
2022-12-09T07:15:23.583Z,3.84
2022-12-09T07:17:50.486Z,3.80
2022-12-09T07:20:17.927Z,3.83
2022-12-09T07:22:44.830Z,3.84
2022-12-09T07:25:11.599Z,3.81
2022-12-09T07:27:39.796Z,3.71
2022-12-09T07:30:07.041Z,3.76
2022-12-09T07:32:33.816Z,3.85
2022-12-09T07:35:00.596Z,3.65
2022-12-09T07:37:27.645Z,3.63
2022-12-09T07:39:54.642Z,3.55
2022-12-09T07:42:21.175Z,3.63
2022-12-09T07:44:49.655Z,3.50
2022-12-09T07:47:18.919Z,3.41
2022-12-09T07:49:46.010Z,3.07
2022-12-09T07:52:13.482Z,3.38
2022-12-09T07:54:40.589Z,3.30
2022-12-09T07:57:07.407Z,3.18
2022-12-09T07:59:34.262Z,2.88
2022-12-09T08:02:05.663Z,3.27
2022-12-09T08:04:35.338Z,3.27
2022-12-09T08:07:02.553Z,3.33
2022-12-09T08:09:29.519Z,3.07
2022-12-09T08:11:56.610Z,3.13
2022-12-09T08:14:23.444Z,3.44
2022-12-09T08:16:50.104Z,3.23
2022-12-09T08:19:17.068Z,3.29
2022-12-09T08:21:45.500Z,3.80
2022-12-09T08:24:13.961Z,3.64
2022-12-09T08:26:41.121Z,3.33
2022-12-09T08:29:13.162Z,3.35
2022-12-09T08:31:43.713Z,3.59
2022-12-09T08:34:11.124Z,3.72
2022-12-09T08:36:38.583Z,3.70
2022-12-09T08:39:05.365Z,3.78
2022-12-09T08:41:35.352Z,3.57
2022-12-09T08:44:09.058Z,3.75
2022-12-09T08:46:38.109Z,3.47
2022-12-09T08:49:05.382Z,3.58
2022-12-09T08:51:32.596Z,3.63
2022-12-09T08:54:00.368Z,3.30
2022-12-09T08:56:27.733Z,3.55
2022-12-09T08:58:55.612Z,4.03
2022-12-09T09:01:26.127Z,4.18
2022-12-09T09:03:53.691Z,4.04
2022-12-09T09:06:20.575Z,3.97
2022-12-09T09:08:47.793Z,4.12
2022-12-09T09:11:17.968Z,4.39
2022-12-09T09:13:46.957Z,4.17
2022-12-09T09:16:24.970Z,4.33
2022-12-09T09:18:53.356Z,4.43
2022-12-09T09:21:23.591Z,4.51
2022-12-09T09:23:51.056Z,4.53
2022-12-09T09:26:24.007Z,4.13
2022-12-09T09:28:53.129Z,4.04
2022-12-09T09:33:50.147Z,4.29
2022-12-09T09:36:22.580Z,4.78
2022-12-09T09:38:50.832Z,5.35
2022-12-09T09:41:53.067Z,6.13
2022-12-09T09:44:35.458Z,6.63
2022-12-09T09:47:12.283Z,6.77
2022-12-09T09:49:52.763Z,6.15
2022-12-09T09:52:28.275Z,6.13
2022-12-09T09:54:54.974Z,5.39
2022-12-09T09:57:43.885Z,5.29
2022-12-09T10:00:27.776Z,4.79
2022-12-09T10:02:58.234Z,4.84
2022-12-09T10:05:25.411Z,4.53
2022-12-09T10:08:29.998Z,3.92
2022-12-09T10:11:18.041Z,3.75
2022-12-09T10:14:03.979Z,3.51
2022-12-09T10:16:41.500Z,3.48
2022-12-09T10:19:33.008Z,3.33
2022-12-09T10:22:11.879Z,3.68
2022-12-09T10:24:47.599Z,3.69
2022-12-09T10:27:29.138Z,3.61
2022-12-09T10:30:07.449Z,4.06
2022-12-09T10:32:37.479Z,3.04
2022-12-09T10:35:23.800Z,3.45
2022-12-09T10:37:52.668Z,3.55
2022-12-09T10:40:25.580Z,3.34
2022-12-09T10:43:14.486Z,2.85
2022-12-09T10:48:47.273Z,3.10
2022-12-09T10:51:23.042Z,3.04
2022-12-09T10:54:15.380Z,2.60
2022-12-09T10:57:07.604Z,2.95
2022-12-09T10:59:35.977Z,3.09
2022-12-09T11:02:22.981Z,3.30
2022-12-09T11:04:50.516Z,3.06
2022-12-09T11:07:20.915Z,3.47
2022-12-09T11:09:51.156Z,3.69
2022-12-09T11:12:27.358Z,3.86
2022-12-09T11:14:55.010Z,3.96
2022-12-09T11:17:26.779Z,4.03
2022-12-09T11:20:08.360Z,3.94
2022-12-09T11:22:44.132Z,4.15
2022-12-09T11:25:29.574Z,4.08
2022-12-09T11:28:04.202Z,4.50
2022-12-09T11:30:57.474Z,4.16
2022-12-09T11:33:36.676Z,4.38
2022-12-09T11:36:10.529Z,4.05
2022-12-09T11:38:38.709Z,4.04
2022-12-09T11:41:10.978Z,4.12
2022-12-09T11:43:55.606Z,3.79
2022-12-09T11:46:26.001Z,3.76
2022-12-09T11:48:57.961Z,3.92
2022-12-09T11:51:37.652Z,3.29
2022-12-09T11:54:28.895Z,3.24
2022-12-09T11:56:58.126Z,3.84
2022-12-09T11:59:36.362Z,3.88
2022-12-09T12:02:45.784Z,3.22
2022-12-09T12:05:32.303Z,3.18
2022-12-09T12:08:24.833Z,3.36
2022-12-09T12:11:13.433Z,3.59
2022-12-09T12:13:50.611Z,3.36
2022-12-09T12:16:58.782Z,3.87
2022-12-09T12:19:35.304Z,3.41
2022-12-09T12:22:31.092Z,3.39
2022-12-09T12:25:27.918Z,3.80
2022-12-09T12:28:15.967Z,3.92
2022-12-09T12:31:07.284Z,3.84
2022-12-09T12:34:16.199Z,3.12
2022-12-09T12:36:54.125Z,3.36
2022-12-09T12:39:39.216Z,3.50
2022-12-09T12:43:11.962Z,3.02
2022-12-09T12:46:19.426Z,3.69
2022-12-09T12:49:04.873Z,3.35
2022-12-09T12:52:09.977Z,3.59
2022-12-09T12:54:45.568Z,3.09
2022-12-09T12:57:20.978Z,3.08
2022-12-09T13:00:12.864Z,3.64
2022-12-09T13:03:05.900Z,3.82
2022-12-09T13:05:39.650Z,3.03
2022-12-09T13:08:43.595Z,3.30
2022-12-09T13:11:28.305Z,3.58
2022-12-09T13:14:03.384Z,3.97
2022-12-09T13:16:34.398Z,3.97
2022-12-09T13:19:34.326Z,3.28
2022-12-09T13:22:01.155Z,3.28
2022-12-09T13:24:42.666Z,3.55
2022-12-09T13:27:23.332Z,3.54
2022-12-09T13:30:08.715Z,3.48
2022-12-09T13:33:02.972Z,3.55
2022-12-09T13:35:54.656Z,3.75
2022-12-09T13:38:33.071Z,3.80
2022-12-09T13:41:00.005Z,3.94
2022-12-09T13:43:30.177Z,3.81
2022-12-09T13:45:59.596Z,4.13
2022-12-09T13:48:29.083Z,4.35
2022-12-09T13:50:59.416Z,4.08
2022-12-09T13:53:33.859Z,3.87
2022-12-09T13:56:02.192Z,3.69
2022-12-09T13:58:56.529Z,3.81
2022-12-09T14:01:54.748Z,4.18
2022-12-09T14:04:24.922Z,4.40
2022-12-09T14:07:10.600Z,4.29
2022-12-09T14:09:48.704Z,3.72
2022-12-09T14:12:41.017Z,3.84
2022-12-09T14:15:25.832Z,3.73
2022-12-09T14:17:52.235Z,3.72
2022-12-09T14:20:29.058Z,3.65
2022-12-09T14:23:07.630Z,4.07
2022-12-09T14:25:33.970Z,3.73
2022-12-09T14:28:09.667Z,3.72
2022-12-09T14:31:04.799Z,4.24
2022-12-09T14:33:46.533Z,4.31
2022-12-09T14:36:12.899Z,4.28
2022-12-09T14:41:59.074Z,4.68
2022-12-09T14:44:37.486Z,4.41
2022-12-09T14:47:18.574Z,4.53
2022-12-09T14:49:49.133Z,4.43
2022-12-09T14:52:29.346Z,4.29
2022-12-09T14:54:58.538Z,4.10
2022-12-09T14:57:33.625Z,4.28
2022-12-09T15:00:00.086Z,4.52
2022-12-09T15:02:32.059Z,4.62
2022-12-09T15:05:00.907Z,4.64
2022-12-09T15:07:29.867Z,4.56
2022-12-09T15:10:00.997Z,4.67
2022-12-09T15:12:53.124Z,4.81
2022-12-09T15:15:23.876Z,4.77
2022-12-09T15:18:02.837Z,4.47
2022-12-09T15:20:36.903Z,4.79
2022-12-09T15:23:16.607Z,4.65
2022-12-09T15:26:05.243Z,4.76
2022-12-09T15:28:34.922Z,4.61
2022-12-09T15:31:01.377Z,4.47
2022-12-09T15:33:39.787Z,4.31
2022-12-09T15:36:13.723Z,4.29
2022-12-09T15:38:47.670Z,4.47
2022-12-09T15:41:33.843Z,4.57
2022-12-09T15:44:06.229Z,4.34
2022-12-09T15:46:35.070Z,4.20
2022-12-09T15:49:04.205Z,4.33
2022-12-09T15:51:33.082Z,4.05
2022-12-09T15:54:06.347Z,4.17
2022-12-09T15:56:38.155Z,4.31
2022-12-09T15:59:12.511Z,4.12
2022-12-09T16:01:39.152Z,4.67
2022-12-09T16:04:08.872Z,4.75
2022-12-09T16:06:37.729Z,4.81
2022-12-09T16:09:13.146Z,4.78
2022-12-09T16:11:45.714Z,4.52
2022-12-09T16:14:13.196Z,4.67
2022-12-09T16:16:45.502Z,4.71
2022-12-09T16:19:25.664Z,4.52
2022-12-09T16:24:17.313Z,4.73
2022-12-09T16:26:46.510Z,4.76
2022-12-09T16:29:28.581Z,4.78
2022-12-09T16:31:58.468Z,4.50
2022-12-09T16:34:26.582Z,4.73
2022-12-09T16:36:55.787Z,4.57
2022-12-09T16:39:25.072Z,3.74
2022-12-09T16:44:36.566Z,3.50
2022-12-09T16:47:02.974Z,3.32
2022-12-09T16:49:36.974Z,4.29
2022-12-09T16:52:03.830Z,3.84
2022-12-09T16:54:30.410Z,3.84
2022-12-09T16:56:57.164Z,2.90
2022-12-09T16:59:31.903Z,3.69
2022-12-09T17:02:02.636Z,3.78
2022-12-09T17:04:29.434Z,4.06
2022-12-09T17:06:56.248Z,3.01
2022-12-09T17:09:22.663Z,2.85
2022-12-09T17:11:49.475Z,3.35
2022-12-09T17:14:17.275Z,2.75
2022-12-09T17:16:43.723Z,2.82
2022-12-09T17:19:10.125Z,2.52
2022-12-09T17:21:36.860Z,2.08
2022-12-09T17:24:03.428Z,2.44
2022-12-09T17:26:29.799Z,2.83
2022-12-09T17:29:01.660Z,2.88
2022-12-09T17:31:29.247Z,2.44
2022-12-09T17:33:57.027Z,3.06
2022-12-09T17:36:23.524Z,3.08
2022-12-09T17:38:49.966Z,2.66
2022-12-09T17:41:20.496Z,1.91
2022-12-09T17:43:47.319Z,2.50
2022-12-09T17:46:14.192Z,2.21
2022-12-09T17:48:41.794Z,2.81
2022-12-09T17:51:10.676Z,2.66
2022-12-09T17:53:39.059Z,2.60
2022-12-09T17:56:12.078Z,2.64
2022-12-09T17:58:38.692Z,2.05
2022-12-09T18:01:12.259Z,2.38
2022-12-09T18:03:55.456Z,2.52
2022-12-09T18:06:22.785Z,2.45
2022-12-09T18:08:49.170Z,2.13
2022-12-09T18:11:15.611Z,2.46
2022-12-09T18:13:42.054Z,1.92
2022-12-09T18:16:12.618Z,2.62
2022-12-09T18:18:39.966Z,2.70
2022-12-09T18:21:13.646Z,3.45
2022-12-09T18:23:42.166Z,2.42
2022-12-09T18:26:10.577Z,2.33
2022-12-09T18:28:37.691Z,2.69
2022-12-09T18:31:12.826Z,1.98
2022-12-09T18:33:39.792Z,2.26
2022-12-09T18:36:16.663Z,2.53
2022-12-09T18:38:43.506Z,2.15
2022-12-09T18:41:14.485Z,2.38
2022-12-09T18:43:43.322Z,2.11
2022-12-09T18:46:37.642Z,2.50
2022-12-09T18:49:12.186Z,2.04
2022-12-09T18:51:40.208Z,2.96
2022-12-09T18:54:07.578Z,3.28
2022-12-09T18:56:35.360Z,3.31
2022-12-09T18:59:07.042Z,3.50
2022-12-09T19:01:39.426Z,3.62
2022-12-09T19:04:11.471Z,3.42
2022-12-09T19:06:39.935Z,2.61
2022-12-09T19:09:10.290Z,2.25
2022-12-09T19:11:38.870Z,2.64
2022-12-09T19:14:07.155Z,3.38
2022-12-09T19:16:35.132Z,3.56
2022-12-09T19:19:08.773Z,3.53
2022-12-09T19:21:36.433Z,2.42
2022-12-09T19:24:02.830Z,3.11
2022-12-09T19:26:32.085Z,2.39
2022-12-09T19:29:01.324Z,2.99
2022-12-09T19:31:32.206Z,3.05
2022-12-09T19:34:01.362Z,2.41
2022-12-09T19:36:29.244Z,2.14
2022-12-09T19:38:57.700Z,2.37
2022-12-09T19:41:24.233Z,2.17
2022-12-09T19:43:58.219Z,1.66
2022-12-09T19:46:26.556Z,1.98
2022-12-09T19:48:53.814Z,2.81
2022-12-09T19:51:21.503Z,3.09
2022-12-09T19:53:48.742Z,2.25
2022-12-09T19:56:17.824Z,2.21
2022-12-09T19:58:44.902Z,1.95
2022-12-09T20:01:26.250Z,2.41
2022-12-09T20:04:09.081Z,2.73
2022-12-09T20:06:47.911Z,2.32
2022-12-09T20:09:18.255Z,1.35
2022-12-09T20:11:44.933Z,2.56
2022-12-09T20:14:13.458Z,2.22
2022-12-09T20:16:40.221Z,1.96
2022-12-09T20:19:07.335Z,2.98
2022-12-09T20:21:35.181Z,3.33
2022-12-09T20:24:02.413Z,3.47
2022-12-09T20:26:31.505Z,2.23
2022-12-09T20:29:01.685Z,1.53
2022-12-09T20:31:31.617Z,1.74
2022-12-09T20:34:01.776Z,1.42
2022-12-09T20:36:30.962Z,1.64
2022-12-09T20:39:00.426Z,1.98
2022-12-09T20:41:28.122Z,1.55
2022-12-09T20:43:58.637Z,1.14
2022-12-09T20:46:30.572Z,2.13
2022-12-09T20:48:58.913Z,2.20
2022-12-09T20:51:32.336Z,1.77
2022-12-09T20:53:59.716Z,1.17
2022-12-09T20:56:27.787Z,1.68
2022-12-09T20:58:54.680Z,1.60
2022-12-09T21:01:23.795Z,1.52
2022-12-09T21:03:51.514Z,1.08
2022-12-09T21:06:20.460Z,1.38
2022-12-09T21:08:47.723Z,1.33
2022-12-09T21:11:22.882Z,2.06
2022-12-09T21:13:51.825Z,2.55
2022-12-09T21:16:27.322Z,1.79
2022-12-09T21:18:57.111Z,2.39
2022-12-09T21:21:25.639Z,2.07
2022-12-09T21:23:54.361Z,1.66
2022-12-09T21:26:23.454Z,2.00
2022-12-09T21:28:51.000Z,2.59
2022-12-09T21:31:26.537Z,1.98
2022-12-09T21:33:54.698Z,1.56
2022-12-09T21:36:23.741Z,0.82
2022-12-09T21:38:50.455Z,1.62
2022-12-09T21:41:19.335Z,0.95
2022-12-09T21:43:46.525Z,0.91
2022-12-09T21:46:17.660Z,1.79
2022-12-09T21:48:47.971Z,1.14
2022-12-09T21:51:17.579Z,0.77
2022-12-09T21:53:44.806Z,1.54
2022-12-09T21:56:15.997Z,2.02
2022-12-09T21:58:44.050Z,1.80
2022-12-09T22:01:13.966Z,0.94
2022-12-09T22:03:41.132Z,0.29
2022-12-09T22:06:08.927Z,0.64
2022-12-09T22:08:37.092Z,0.38
2022-12-09T22:11:15.088Z,1.38
2022-12-09T22:13:41.773Z,1.53
2022-12-09T22:16:15.460Z,0.37
2022-12-09T22:18:42.399Z,0.42
2022-12-09T22:21:28.122Z,0.05
2022-12-09T22:23:57.778Z,1.04
2022-12-09T22:26:24.779Z,1.82
2022-12-09T22:28:52.414Z,1.52
2022-12-09T22:31:21.825Z,1.32
2022-12-09T22:33:50.764Z,0.81
2022-12-09T22:36:17.767Z,1.65
2022-12-09T22:38:45.404Z,0.20
2022-12-09T22:41:20.859Z,0.36
2022-12-09T22:43:48.941Z,0.77
2022-12-09T22:46:19.013Z,0.61
2022-12-09T22:48:45.503Z,1.50
2022-12-09T22:51:17.117Z,0.79
2022-12-09T22:53:44.148Z,0.48
2022-12-09T22:56:11.763Z,0.91
2022-12-09T22:58:38.390Z,0.86
2022-12-09T23:01:14.308Z,0.78
2022-12-09T23:03:40.762Z,0.31
2022-12-09T23:06:07.998Z,0.19
2022-12-09T23:08:35.207Z,0.45
2022-12-09T23:11:08.163Z,1.30
2022-12-09T23:13:40.580Z,1.60
2022-12-09T23:16:09.190Z,0.94
2022-12-09T23:18:36.035Z,0.35
2022-12-09T23:21:08.807Z,0.35
2022-12-09T23:23:35.281Z,0.12
2022-12-09T23:26:10.811Z,0.59
2022-12-09T23:28:43.691Z,0.39
2022-12-09T23:31:11.980Z,0.29
2022-12-09T23:33:40.284Z,0.19
2022-12-09T23:36:07.174Z,1.43
2022-12-09T23:38:33.770Z,1.24
2022-12-09T23:41:00.345Z,1.01
2022-12-09T23:43:29.878Z,1.72
2022-12-09T23:46:00.188Z,0.26
2022-12-09T23:48:26.647Z,0.74
2022-12-09T23:50:53.903Z,0.27
2022-12-09T23:53:20.638Z,1.68
2022-12-09T23:55:47.415Z,2.03
2022-12-09T23:58:13.855Z,2.32
